createdAt,value
2023-01-27T00:04:07.473Z,0.51
2023-01-27T00:09:11.391Z,0.58
2023-01-27T00:14:14.004Z,0.66
2023-01-27T00:19:19.868Z,0.70
2023-01-27T00:24:41.350Z,0.69
2023-01-27T00:29:44.007Z,0.66
2023-01-27T00:34:46.702Z,0.63
2023-01-27T00:39:49.448Z,0.65
2023-01-27T00:45:10.769Z,0.66
2023-01-27T00:50:14.175Z,0.69
2023-01-27T00:55:18.357Z,0.73
2023-01-27T01:00:21.568Z,0.76
2023-01-27T01:05:24.689Z,0.73
2023-01-27T01:10:27.339Z,0.67
2023-01-27T01:15:30.065Z,0.61
2023-01-27T01:20:37.897Z,0.57
2023-01-27T01:25:41.446Z,0.53
2023-01-27T01:30:44.148Z,0.55
2023-01-27T01:35:46.795Z,0.62
2023-01-27T01:40:49.510Z,0.70
2023-01-27T01:45:54.799Z,0.71
2023-01-27T01:51:19.566Z,0.69
2023-01-27T01:56:46.064Z,0.65
2023-01-27T02:01:50.645Z,0.60
2023-01-27T02:07:09.784Z,0.59
2023-01-27T02:12:12.692Z,0.62
2023-01-27T02:17:15.804Z,0.65
2023-01-27T02:22:43.341Z,0.70
2023-01-27T02:27:45.946Z,0.72
2023-01-27T02:32:48.632Z,0.66
2023-01-27T02:37:52.176Z,0.60
2023-01-27T02:42:56.948Z,0.59
2023-01-27T02:47:59.766Z,0.59
2023-01-27T02:53:02.463Z,0.59
2023-01-27T02:58:05.156Z,0.61
2023-01-27T03:03:07.835Z,0.63
2023-01-27T03:08:10.483Z,0.63
2023-01-27T03:13:13.086Z,0.58
2023-01-27T03:18:16.437Z,0.55
2023-01-27T03:23:20.540Z,0.56
2023-01-27T03:28:23.189Z,0.60
2023-01-27T03:33:25.981Z,0.59
2023-01-27T03:38:46.469Z,0.52
2023-01-27T03:44:08.062Z,0.43
2023-01-27T03:49:10.719Z,0.33
2023-01-27T03:54:13.330Z,0.26
2023-01-27T03:59:15.903Z,0.28
2023-01-27T04:04:36.393Z,0.28
2023-01-27T04:09:39.053Z,0.30
2023-01-27T04:14:44.396Z,0.31
2023-01-27T04:19:47.836Z,0.32
2023-01-27T04:24:50.415Z,0.28
2023-01-27T04:29:53.428Z,0.29
2023-01-27T04:34:56.149Z,0.34
2023-01-27T04:39:58.737Z,0.38
2023-01-27T04:45:01.333Z,0.39
2023-01-27T04:50:04.864Z,0.40
2023-01-27T04:55:08.185Z,0.41
2023-01-27T05:00:13.710Z,0.42
2023-01-27T05:05:17.290Z,0.40
2023-01-27T05:10:19.897Z,0.38
2023-01-27T05:15:24.506Z,0.38
2023-01-27T05:20:27.663Z,0.38
2023-01-27T05:25:30.220Z,0.37
2023-01-27T05:30:32.881Z,0.38
2023-01-27T05:35:36.948Z,0.40
2023-01-27T05:40:39.642Z,0.37
2023-01-27T05:45:42.223Z,0.35
2023-01-27T05:50:54.495Z,0.35
2023-01-27T05:55:58.024Z,0.40
2023-01-27T06:01:24.757Z,0.43
2023-01-27T06:06:30.421Z,0.49
2023-01-27T06:11:33.056Z,0.54
2023-01-27T06:16:35.828Z,0.54
2023-01-27T06:21:38.497Z,0.51
2023-01-27T06:26:41.117Z,0.43
2023-01-27T06:31:43.747Z,0.35
2023-01-27T06:36:46.581Z,0.35
2023-01-27T06:41:49.819Z,0.35
2023-01-27T06:46:53.426Z,0.41
2023-01-27T06:51:56.070Z,0.50
2023-01-27T06:56:58.908Z,0.55
2023-01-27T07:02:02.327Z,0.56
2023-01-27T07:07:05.534Z,0.57
2023-01-27T07:12:08.507Z,0.58
2023-01-27T07:17:11.125Z,0.64
2023-01-27T07:22:13.921Z,0.77
2023-01-27T07:27:16.811Z,0.88
2023-01-27T07:32:19.564Z,0.94
2023-01-27T07:37:22.287Z,1.01
2023-01-27T07:42:24.957Z,1.10
2023-01-27T07:47:27.551Z,1.14
2023-01-27T07:52:30.379Z,1.15
2023-01-27T07:57:33.417Z,1.13
2023-01-27T08:02:37.186Z,1.15
2023-01-27T08:07:39.896Z,1.22
2023-01-27T08:12:43.597Z,1.30
2023-01-27T08:17:56.719Z,1.41
2023-01-27T08:22:59.454Z,1.48
2023-01-27T08:28:02.476Z,1.54
2023-01-27T08:33:05.081Z,1.54
2023-01-27T08:38:09.297Z,1.52
2023-01-27T08:43:13.224Z,1.55
2023-01-27T08:48:15.794Z,1.61
2023-01-27T08:53:18.501Z,1.68
2023-01-27T08:58:21.662Z,1.75
2023-01-27T09:03:25.897Z,1.81
2023-01-27T09:08:29.305Z,1.85
2023-01-27T09:13:31.920Z,1.93
2023-01-27T09:18:34.940Z,2.09
2023-01-27T09:23:38.604Z,2.29
2023-01-27T09:28:41.367Z,2.47
2023-01-27T09:33:45.174Z,2.48
2023-01-27T09:39:00.600Z,2.40
2023-01-27T09:44:27.916Z,2.33
2023-01-27T09:49:36.465Z,2.26
2023-01-27T09:54:58.977Z,2.17
2023-01-27T10:00:32.554Z,2.10
2023-01-27T10:05:38.206Z,2.07
2023-01-27T10:11:02.864Z,2.05
2023-01-27T10:16:11.038Z,2.01
2023-01-27T10:21:42.831Z,1.99
2023-01-27T10:27:01.468Z,2.11
2023-01-27T10:32:43.993Z,2.23
2023-01-27T10:38:14.344Z,2.31
2023-01-27T10:43:38.832Z,2.38
2023-01-27T10:48:51.059Z,2.51
2023-01-27T10:54:18.432Z,2.45
2023-01-27T10:59:33.041Z,2.32
2023-01-27T11:04:46.824Z,2.29
2023-01-27T11:10:03.217Z,2.31
2023-01-27T11:15:30.266Z,2.30
2023-01-27T14:53:43.932Z,0.69
2023-01-27T14:58:47.635Z,0.55
2023-01-27T15:04:12.220Z,0.45
2023-01-27T15:09:33.703Z,0.37
2023-01-27T15:15:11.017Z,0.33
2023-01-27T15:20:24.616Z,0.22
2023-01-27T15:25:52.738Z,0.11
2023-01-27T15:31:14.366Z,0.05
2023-01-27T15:36:38.477Z,0.01
2023-01-27T15:42:03.137Z,-0.04
2023-01-27T15:47:15.091Z,-0.12
2023-01-27T15:52:20.875Z,-0.17
2023-01-27T15:57:38.020Z,-0.22
2023-01-27T16:02:46.855Z,-0.26
2023-01-27T16:08:05.049Z,-0.26
2023-01-27T16:13:29.476Z,-0.22
2023-01-27T16:19:00.878Z,-0.14
2023-01-27T16:24:25.412Z,-0.11
2023-01-27T16:29:57.254Z,-0.13
2023-01-27T16:35:04.397Z,-0.16
2023-01-27T16:40:16.172Z,-0.22
2023-01-27T16:45:22.400Z,-0.29
2023-01-27T16:50:50.301Z,-0.36
2023-01-27T16:56:17.090Z,-0.38
2023-01-27T17:01:28.668Z,-0.37
2023-01-27T17:06:31.675Z,-0.37
2023-01-27T17:11:35.565Z,-0.41
2023-01-27T17:16:43.521Z,-0.49
2023-01-27T17:21:58.140Z,-0.54
2023-01-27T17:27:05.682Z,-0.58
2023-01-27T17:32:39.027Z,-0.61
2023-01-27T17:37:44.919Z,-0.63
2023-01-27T17:42:49.039Z,-0.65
2023-01-27T17:48:01.681Z,-0.63
2023-01-27T17:53:11.755Z,-0.62
2023-01-27T17:58:25.159Z,-0.61
2023-01-27T18:03:34.451Z,-0.66
2023-01-27T18:08:40.700Z,-0.70
2023-01-27T18:13:43.567Z,-0.70
2023-01-27T18:18:47.521Z,-0.68
2023-01-27T18:23:57.994Z,-0.68
2023-01-27T18:29:01.827Z,-0.66
2023-01-27T18:34:04.648Z,-0.66
2023-01-27T18:39:32.468Z,-0.64
2023-01-27T18:44:35.806Z,-0.61
2023-01-27T18:49:38.473Z,-0.56
2023-01-27T18:54:41.735Z,-0.52
2023-01-27T18:59:44.432Z,-0.50
2023-01-27T19:04:47.270Z,-0.53
2023-01-27T19:09:49.868Z,-0.53
2023-01-27T19:14:52.481Z,-0.54
2023-01-27T19:19:55.199Z,-0.58
2023-01-27T19:24:57.762Z,-0.61
2023-01-27T19:30:21.615Z,-0.62
2023-01-27T19:35:26.306Z,-0.62
2023-01-27T19:40:29.919Z,-0.62
2023-01-27T19:45:33.019Z,-0.63
2023-01-27T19:50:35.672Z,-0.67
2023-01-27T19:55:38.508Z,-0.72
2023-01-27T20:00:41.119Z,-0.75
2023-01-27T20:05:44.480Z,-0.72
2023-01-27T20:10:47.408Z,-0.70
2023-01-27T20:15:50.733Z,-0.71
2023-01-27T20:20:53.292Z,-0.81
2023-01-27T20:25:56.513Z,-0.92
2023-01-27T20:30:59.217Z,-0.90
2023-01-27T20:36:05.487Z,-0.85
2023-01-27T20:41:10.422Z,-0.87
2023-01-27T20:46:16.242Z,-0.83
2023-01-27T20:51:19.118Z,-0.81
2023-01-27T20:56:23.730Z,-0.85
2023-01-27T21:01:26.707Z,-0.88
2023-01-27T21:06:29.847Z,-0.88
2023-01-27T21:11:33.106Z,-0.84
2023-01-27T21:16:36.343Z,-0.78
2023-01-27T21:21:39.161Z,-0.78
2023-01-27T21:26:42.056Z,-0.81
2023-01-27T21:31:44.697Z,-0.85
2023-01-27T21:36:47.443Z,-0.90
2023-01-27T21:41:55.883Z,-0.90
2023-01-27T21:46:58.825Z,-0.88
2023-01-27T21:52:01.613Z,-0.88
2023-01-27T21:57:04.220Z,-0.88
2023-01-27T22:02:11.123Z,-0.87
2023-01-27T22:07:16.183Z,-0.81
2023-01-27T22:12:18.824Z,-0.76
2023-01-27T22:17:21.719Z,-0.71
2023-01-27T22:22:24.280Z,-0.68
2023-01-27T22:27:26.969Z,-0.73
2023-01-27T22:32:29.615Z,-0.76
2023-01-27T22:37:34.461Z,-0.77
2023-01-27T22:42:39.728Z,-0.75
2023-01-27T22:47:42.647Z,-0.70
2023-01-27T22:52:45.561Z,-0.65
2023-01-27T22:57:49.248Z,-0.62
2023-01-27T23:02:51.822Z,-0.62
2023-01-27T23:07:54.672Z,-0.68
2023-01-27T23:12:57.226Z,-0.73
2023-01-27T23:17:59.817Z,-0.77
2023-01-27T23:23:02.439Z,-0.77
2023-01-27T23:28:05.106Z,-0.75
2023-01-27T23:33:07.662Z,-0.72
2023-01-27T23:38:26.365Z,-0.73
2023-01-27T23:43:33.440Z,-0.74
2023-01-27T23:48:36.014Z,-0.77
2023-01-27T23:53:38.550Z,-0.81
2023-01-27T23:58:42.160Z,-0.91
